sensor_id;sensor_type;location;lat;lon;timestamp;P1;durP1;ratioP1;P2;durP2;ratioP2
68931;SDS011;55970;50.064;8.228;2022-08-21T00:00:37;4.10;;;2.10;;
68931;SDS011;55970;50.064;8.228;2022-08-21T00:03:04;4.72;;;1.92;;
68931;SDS011;55970;50.064;8.228;2022-08-21T00:05:32;5.15;;;1.95;;
68931;SDS011;55970;50.064;8.228;2022-08-21T00:10:27;4.13;;;1.83;;
68931;SDS011;55970;50.064;8.228;2022-08-21T00:12:52;3.47;;;1.80;;
68931;SDS011;55970;50.064;8.228;2022-08-21T00:15:20;3.33;;;1.90;;
68931;SDS011;55970;50.064;8.228;2022-08-21T00:17:48;3.55;;;1.80;;
68931;SDS011;55970;50.064;8.228;2022-08-21T00:20:14;4.05;;;2.05;;
68931;SDS011;55970;50.064;8.228;2022-08-21T00:22:41;4.22;;;1.95;;
68931;SDS011;55970;50.064;8.228;2022-08-21T00:25:07;3.58;;;1.90;;
68931;SDS011;55970;50.064;8.228;2022-08-21T00:27:33;4.25;;;2.03;;
68931;SDS011;55970;50.064;8.228;2022-08-21T00:29:59;4.50;;;2.20;;
68931;SDS011;55970;50.064;8.228;2022-08-21T00:32:26;4.05;;;1.85;;
68931;SDS011;55970;50.064;8.228;2022-08-21T00:34:52;4.40;;;2.00;;
68931;SDS011;55970;50.064;8.228;2022-08-21T00:37:18;5.20;;;2.10;;
68931;SDS011;55970;50.064;8.228;2022-08-21T00:39:44;2.65;;;1.90;;
68931;SDS011;55970;50.064;8.228;2022-08-21T00:42:10;3.90;;;2.10;;
68931;SDS011;55970;50.064;8.228;2022-08-21T00:44:40;4.32;;;2.05;;
68931;SDS011;55970;50.064;8.228;2022-08-21T00:47:09;3.35;;;1.90;;
68931;SDS011;55970;50.064;8.228;2022-08-21T00:49:35;4.88;;;2.20;;
68931;SDS011;55970;50.064;8.228;2022-08-21T00:52:01;3.53;;;1.90;;
68931;SDS011;55970;50.064;8.228;2022-08-21T00:54:30;2.97;;;1.83;;
68931;SDS011;55970;50.064;8.228;2022-08-21T00:56:59;4.25;;;2.00;;
68931;SDS011;55970;50.064;8.228;2022-08-21T00:59:28;3.42;;;1.88;;
68931;SDS011;55970;50.064;8.228;2022-08-21T01:01:57;4.70;;;2.47;;
68931;SDS011;55970;50.064;8.228;2022-08-21T01:04:22;3.83;;;1.73;;
68931;SDS011;55970;50.064;8.228;2022-08-21T01:06:48;3.22;;;1.80;;
68931;SDS011;55970;50.064;8.228;2022-08-21T01:09:14;3.92;;;1.90;;
68931;SDS011;55970;50.064;8.228;2022-08-21T01:11:40;4.15;;;2.20;;
68931;SDS011;55970;50.064;8.228;2022-08-21T01:14:07;4.43;;;2.33;;
68931;SDS011;55970;50.064;8.228;2022-08-21T01:19:03;3.42;;;2.10;;
68931;SDS011;55970;50.064;8.228;2022-08-21T01:21:28;4.55;;;2.28;;
68931;SDS011;55970;50.064;8.228;2022-08-21T01:23:54;3.65;;;2.20;;
68931;SDS011;55970;50.064;8.228;2022-08-21T01:26:22;3.03;;;2.30;;
68931;SDS011;55970;50.064;8.228;2022-08-21T01:28:55;4.40;;;2.70;;
68931;SDS011;55970;50.064;8.228;2022-08-21T01:31:25;4.03;;;2.08;;
68931;SDS011;55970;50.064;8.228;2022-08-21T01:33:52;4.30;;;2.20;;
68931;SDS011;55970;50.064;8.228;2022-08-21T01:36:18;4.35;;;2.30;;
68931;SDS011;55970;50.064;8.228;2022-08-21T01:38:44;4.10;;;2.13;;
68931;SDS011;55970;50.064;8.228;2022-08-21T01:41:09;2.45;;;2.03;;
68931;SDS011;55970;50.064;8.228;2022-08-21T01:43:35;3.45;;;2.10;;
68931;SDS011;55970;50.064;8.228;2022-08-21T01:46:01;2.78;;;2.13;;
68931;SDS011;55970;50.064;8.228;2022-08-21T01:48:28;4.75;;;2.40;;
68931;SDS011;55970;50.064;8.228;2022-08-21T01:50:53;4.00;;;2.50;;
68931;SDS011;55970;50.064;8.228;2022-08-21T01:53:19;4.65;;;2.50;;
68931;SDS011;55970;50.064;8.228;2022-08-21T01:55:44;4.40;;;2.30;;
68931;SDS011;55970;50.064;8.228;2022-08-21T01:58:10;4.78;;;2.50;;
68931;SDS011;55970;50.064;8.228;2022-08-21T02:00:35;3.88;;;2.28;;
68931;SDS011;55970;50.064;8.228;2022-08-21T02:03:01;3.72;;;2.30;;
68931;SDS011;55970;50.064;8.228;2022-08-21T02:05:27;4.20;;;2.30;;
68931;SDS011;55970;50.064;8.228;2022-08-21T02:07:53;3.35;;;2.00;;
68931;SDS011;55970;50.064;8.228;2022-08-21T02:10:21;3.72;;;2.25;;
68931;SDS011;55970;50.064;8.228;2022-08-21T02:12:51;4.75;;;2.20;;
68931;SDS011;55970;50.064;8.228;2022-08-21T02:15:17;3.58;;;2.20;;
68931;SDS011;55970;50.064;8.228;2022-08-21T02:17:56;3.00;;;2.13;;
68931;SDS011;55970;50.064;8.228;2022-08-21T02:20:25;3.85;;;2.33;;
68931;SDS011;55970;50.064;8.228;2022-08-21T02:22:52;4.07;;;2.45;;
68931;SDS011;55970;50.064;8.228;2022-08-21T02:25:19;2.97;;;2.15;;
68931;SDS011;55970;50.064;8.228;2022-08-21T02:27:46;4.65;;;2.30;;
68931;SDS011;55970;50.064;8.228;2022-08-21T02:30:14;3.50;;;2.30;;
68931;SDS011;55970;50.064;8.228;2022-08-21T02:32:41;4.57;;;2.40;;
68931;SDS011;55970;50.064;8.228;2022-08-21T02:35:07;4.07;;;2.03;;
68931;SDS011;55970;50.064;8.228;2022-08-21T02:37:34;3.92;;;2.40;;
68931;SDS011;55970;50.064;8.228;2022-08-21T02:40:07;3.45;;;2.30;;
68931;SDS011;55970;50.064;8.228;2022-08-21T02:42:36;3.20;;;2.10;;
68931;SDS011;55970;50.064;8.228;2022-08-21T02:45:03;3.83;;;2.38;;
68931;SDS011;55970;50.064;8.228;2022-08-21T02:47:29;4.03;;;2.47;;
68931;SDS011;55970;50.064;8.228;2022-08-21T02:49:54;3.53;;;2.10;;
68931;SDS011;55970;50.064;8.228;2022-08-21T02:52:19;4.60;;;2.28;;
68931;SDS011;55970;50.064;8.228;2022-08-21T02:54:46;3.50;;;2.20;;
68931;SDS011;55970;50.064;8.228;2022-08-21T02:57:12;4.47;;;2.20;;
68931;SDS011;55970;50.064;8.228;2022-08-21T02:59:37;3.47;;;2.20;;
68931;SDS011;55970;50.064;8.228;2022-08-21T03:02:03;4.97;;;2.45;;
68931;SDS011;55970;50.064;8.228;2022-08-21T03:04:28;3.35;;;2.20;;
68931;SDS011;55970;50.064;8.228;2022-08-21T03:06:55;6.90;;;2.38;;
68931;SDS011;55970;50.064;8.228;2022-08-21T03:09:20;3.83;;;2.13;;
68931;SDS011;55970;50.064;8.228;2022-08-21T03:11:46;4.60;;;2.50;;
68931;SDS011;55970;50.064;8.228;2022-08-21T03:14:11;3.60;;;2.20;;
68931;SDS011;55970;50.064;8.228;2022-08-21T03:16:37;4.47;;;2.40;;
68931;SDS011;55970;50.064;8.228;2022-08-21T03:19:02;3.43;;;2.20;;
68931;SDS011;55970;50.064;8.228;2022-08-21T03:21:28;3.47;;;2.00;;
68931;SDS011;55970;50.064;8.228;2022-08-21T03:23:53;5.18;;;2.38;;
68931;SDS011;55970;50.064;8.228;2022-08-21T03:26:19;3.72;;;2.25;;
68931;SDS011;55970;50.064;8.228;2022-08-21T03:28:44;2.67;;;2.17;;
68931;SDS011;55970;50.064;8.228;2022-08-21T03:31:10;3.58;;;2.13;;
68931;SDS011;55970;50.064;8.228;2022-08-21T03:33:35;3.27;;;2.30;;
68931;SDS011;55970;50.064;8.228;2022-08-21T03:36:02;4.13;;;1.90;;
68931;SDS011;55970;50.064;8.228;2022-08-21T03:38:30;3.83;;;1.98;;
68931;SDS011;55970;50.064;8.228;2022-08-21T03:40:58;3.85;;;2.13;;
68931;SDS011;55970;50.064;8.228;2022-08-21T03:43:25;3.70;;;2.22;;
68931;SDS011;55970;50.064;8.228;2022-08-21T03:45:51;3.88;;;2.30;;
68931;SDS011;55970;50.064;8.228;2022-08-21T03:48:17;3.58;;;2.17;;
68931;SDS011;55970;50.064;8.228;2022-08-21T03:50:43;4.10;;;2.17;;
68931;SDS011;55970;50.064;8.228;2022-08-21T03:53:11;4.18;;;2.08;;
68931;SDS011;55970;50.064;8.228;2022-08-21T03:55:37;4.03;;;2.03;;
68931;SDS011;55970;50.064;8.228;2022-08-21T03:58:03;3.13;;;1.88;;
68931;SDS011;55970;50.064;8.228;2022-08-21T04:00:29;3.60;;;2.15;;
68931;SDS011;55970;50.064;8.228;2022-08-21T04:02:54;4.93;;;2.30;;
68931;SDS011;55970;50.064;8.228;2022-08-21T04:05:20;3.70;;;2.03;;
68931;SDS011;55970;50.064;8.228;2022-08-21T04:07:58;3.55;;;2.13;;
68931;SDS011;55970;50.064;8.228;2022-08-21T04:10:29;3.50;;;2.45;;
68931;SDS011;55970;50.064;8.228;2022-08-21T04:12:57;4.05;;;2.17;;
68931;SDS011;55970;50.064;8.228;2022-08-21T04:15:23;2.65;;;1.95;;
68931;SDS011;55970;50.064;8.228;2022-08-21T04:17:50;3.15;;;2.05;;
68931;SDS011;55970;50.064;8.228;2022-08-21T04:20:16;4.88;;;2.58;;
68931;SDS011;55970;50.064;8.228;2022-08-21T04:22:42;2.92;;;2.10;;
68931;SDS011;55970;50.064;8.228;2022-08-21T04:25:09;3.22;;;2.10;;
68931;SDS011;55970;50.064;8.228;2022-08-21T04:27:35;3.60;;;2.35;;
68931;SDS011;55970;50.064;8.228;2022-08-21T04:30:00;3.63;;;2.10;;
68931;SDS011;55970;50.064;8.228;2022-08-21T04:32:26;4.28;;;2.20;;
68931;SDS011;55970;50.064;8.228;2022-08-21T04:35:03;4.22;;;1.98;;
68931;SDS011;55970;50.064;8.228;2022-08-21T04:37:31;2.88;;;1.98;;
68931;SDS011;55970;50.064;8.228;2022-08-21T04:39:56;2.97;;;2.03;;
68931;SDS011;55970;50.064;8.228;2022-08-21T04:42:24;4.43;;;2.20;;
68931;SDS011;55970;50.064;8.228;2022-08-21T04:44:49;2.95;;;2.03;;
68931;SDS011;55970;50.064;8.228;2022-08-21T04:47:15;3.45;;;2.08;;
68931;SDS011;55970;50.064;8.228;2022-08-21T04:49:41;3.75;;;2.22;;
68931;SDS011;55970;50.064;8.228;2022-08-21T04:52:07;3.55;;;2.10;;
68931;SDS011;55970;50.064;8.228;2022-08-21T04:54:33;4.20;;;2.10;;
68931;SDS011;55970;50.064;8.228;2022-08-21T04:57:02;2.92;;;2.10;;
68931;SDS011;55970;50.064;8.228;2022-08-21T04:59:36;4.50;;;2.50;;
68931;SDS011;55970;50.064;8.228;2022-08-21T05:02:04;3.90;;;2.00;;
68931;SDS011;55970;50.064;8.228;2022-08-21T05:04:32;4.30;;;2.15;;
68931;SDS011;55970;50.064;8.228;2022-08-21T05:07:00;3.55;;;2.05;;
68931;SDS011;55970;50.064;8.228;2022-08-21T05:09:28;4.23;;;2.10;;
68931;SDS011;55970;50.064;8.228;2022-08-21T05:11:54;5.50;;;2.35;;
68931;SDS011;55970;50.064;8.228;2022-08-21T05:14:20;3.40;;;2.40;;
68931;SDS011;55970;50.064;8.228;2022-08-21T05:16:46;3.15;;;2.40;;
68931;SDS011;55970;50.064;8.228;2022-08-21T05:19:11;3.55;;;2.38;;
68931;SDS011;55970;50.064;8.228;2022-08-21T05:21:38;3.97;;;2.40;;
68931;SDS011;55970;50.064;8.228;2022-08-21T05:24:06;3.70;;;2.50;;
68931;SDS011;55970;50.064;8.228;2022-08-21T05:26:31;3.80;;;2.38;;
68931;SDS011;55970;50.064;8.228;2022-08-21T05:28:57;5.00;;;2.60;;
68931;SDS011;55970;50.064;8.228;2022-08-21T05:31:23;4.50;;;2.53;;
68931;SDS011;55970;50.064;8.228;2022-08-21T05:33:48;4.13;;;2.10;;
68931;SDS011;55970;50.064;8.228;2022-08-21T05:36:14;3.90;;;2.80;;
68931;SDS011;55970;50.064;8.228;2022-08-21T05:38:39;3.15;;;2.55;;
68931;SDS011;55970;50.064;8.228;2022-08-21T05:41:05;3.75;;;2.42;;
68931;SDS011;55970;50.064;8.228;2022-08-21T05:43:30;3.88;;;2.45;;
68931;SDS011;55970;50.064;8.228;2022-08-21T05:45:57;5.45;;;2.67;;
68931;SDS011;55970;50.064;8.228;2022-08-21T05:48:23;3.78;;;2.55;;
68931;SDS011;55970;50.064;8.228;2022-08-21T05:50:50;4.57;;;2.42;;
68931;SDS011;55970;50.064;8.228;2022-08-21T05:53:17;4.13;;;2.28;;
68931;SDS011;55970;50.064;8.228;2022-08-21T05:55:44;3.53;;;2.40;;
68931;SDS011;55970;50.064;8.228;2022-08-21T05:58:10;3.95;;;2.47;;
68931;SDS011;55970;50.064;8.228;2022-08-21T06:00:36;4.07;;;2.50;;
68931;SDS011;55970;50.064;8.228;2022-08-21T06:03:02;4.28;;;2.50;;
68931;SDS011;55970;50.064;8.228;2022-08-21T06:05:28;4.15;;;2.50;;
68931;SDS011;55970;50.064;8.228;2022-08-21T06:07:53;3.50;;;2.35;;
68931;SDS011;55970;50.064;8.228;2022-08-21T06:10:19;3.97;;;2.40;;
68931;SDS011;55970;50.064;8.228;2022-08-21T06:12:44;3.92;;;2.22;;
68931;SDS011;55970;50.064;8.228;2022-08-21T06:15:10;4.82;;;2.28;;
68931;SDS011;55970;50.064;8.228;2022-08-21T06:17:36;3.95;;;2.28;;
68931;SDS011;55970;50.064;8.228;2022-08-21T06:20:01;3.95;;;2.30;;
68931;SDS011;55970;50.064;8.228;2022-08-21T06:22:27;3.20;;;2.47;;
68931;SDS011;55970;50.064;8.228;2022-08-21T06:24:53;2.50;;;2.08;;
68931;SDS011;55970;50.064;8.228;2022-08-21T06:27:19;3.80;;;2.30;;
68931;SDS011;55970;50.064;8.228;2022-08-21T06:29:44;3.95;;;2.28;;
68931;SDS011;55970;50.064;8.228;2022-08-21T06:32:12;3.72;;;2.30;;
68931;SDS011;55970;50.064;8.228;2022-08-21T06:34:40;3.50;;;2.50;;
68931;SDS011;55970;50.064;8.228;2022-08-21T06:37:06;2.78;;;2.17;;
68931;SDS011;55970;50.064;8.228;2022-08-21T06:39:32;3.95;;;2.17;;
68931;SDS011;55970;50.064;8.228;2022-08-21T06:41:58;3.47;;;2.25;;
68931;SDS011;55970;50.064;8.228;2022-08-21T06:44:24;3.03;;;2.00;;
68931;SDS011;55970;50.064;8.228;2022-08-21T06:46:50;4.63;;;2.47;;
68931;SDS011;55970;50.064;8.228;2022-08-21T06:49:15;5.55;;;2.28;;
68931;SDS011;55970;50.064;8.228;2022-08-21T06:51:40;3.42;;;2.10;;
68931;SDS011;55970;50.064;8.228;2022-08-21T06:54:06;4.10;;;2.45;;
68931;SDS011;55970;50.064;8.228;2022-08-21T06:56:31;4.80;;;2.40;;
68931;SDS011;55970;50.064;8.228;2022-08-21T06:58:58;4.20;;;2.08;;
68931;SDS011;55970;50.064;8.228;2022-08-21T07:01:24;4.43;;;2.50;;
68931;SDS011;55970;50.064;8.228;2022-08-21T07:03:51;4.05;;;2.42;;
68931;SDS011;55970;50.064;8.228;2022-08-21T07:06:16;5.18;;;2.20;;
68931;SDS011;55970;50.064;8.228;2022-08-21T07:08:42;5.03;;;2.67;;
68931;SDS011;55970;50.064;8.228;2022-08-21T07:11:09;4.63;;;2.53;;
68931;SDS011;55970;50.064;8.228;2022-08-21T07:13:38;4.65;;;2.30;;
68931;SDS011;55970;50.064;8.228;2022-08-21T07:16:03;4.65;;;2.33;;
68931;SDS011;55970;50.064;8.228;2022-08-21T07:18:29;3.28;;;2.30;;
68931;SDS011;55970;50.064;8.228;2022-08-21T07:20:56;5.13;;;2.60;;
68931;SDS011;55970;50.064;8.228;2022-08-21T07:23:26;3.58;;;2.50;;
68931;SDS011;55970;50.064;8.228;2022-08-21T07:25:55;3.72;;;2.50;;
68931;SDS011;55970;50.064;8.228;2022-08-21T07:28:20;5.95;;;2.60;;
68931;SDS011;55970;50.064;8.228;2022-08-21T07:30:46;3.70;;;2.30;;
68931;SDS011;55970;50.064;8.228;2022-08-21T07:33:16;3.33;;;2.25;;
68931;SDS011;55970;50.064;8.228;2022-08-21T07:35:41;4.07;;;2.13;;
68931;SDS011;55970;50.064;8.228;2022-08-21T07:38:07;4.97;;;2.50;;
68931;SDS011;55970;50.064;8.228;2022-08-21T07:40:32;4.47;;;2.38;;
68931;SDS011;55970;50.064;8.228;2022-08-21T07:42:58;3.47;;;2.50;;
68931;SDS011;55970;50.064;8.228;2022-08-21T07:45:23;5.25;;;2.42;;
68931;SDS011;55970;50.064;8.228;2022-08-21T07:47:51;4.75;;;2.50;;
68931;SDS011;55970;50.064;8.228;2022-08-21T07:50:17;4.15;;;2.40;;
68931;SDS011;55970;50.064;8.228;2022-08-21T07:52:43;4.35;;;2.40;;
68931;SDS011;55970;50.064;8.228;2022-08-21T07:55:10;5.03;;;2.58;;
68931;SDS011;55970;50.064;8.228;2022-08-21T07:57:36;5.68;;;2.85;;
68931;SDS011;55970;50.064;8.228;2022-08-21T08:00:06;4.15;;;2.28;;
68931;SDS011;55970;50.064;8.228;2022-08-21T08:02:34;4.05;;;2.40;;
68931;SDS011;55970;50.064;8.228;2022-08-21T08:05:03;4.85;;;2.50;;
68931;SDS011;55970;50.064;8.228;2022-08-21T08:07:30;7.00;;;2.92;;
68931;SDS011;55970;50.064;8.228;2022-08-21T08:09:56;4.93;;;2.70;;
68931;SDS011;55970;50.064;8.228;2022-08-21T08:12:23;5.45;;;2.67;;
68931;SDS011;55970;50.064;8.228;2022-08-21T08:14:54;5.35;;;2.30;;
68931;SDS011;55970;50.064;8.228;2022-08-21T08:17:20;4.25;;;2.80;;
68931;SDS011;55970;50.064;8.228;2022-08-21T08:19:48;4.97;;;2.72;;
68931;SDS011;55970;50.064;8.228;2022-08-21T08:22:15;5.28;;;2.60;;
68931;SDS011;55970;50.064;8.228;2022-08-21T08:24:42;6.13;;;2.88;;
68931;SDS011;55970;50.064;8.228;2022-08-21T08:27:07;5.45;;;2.65;;
68931;SDS011;55970;50.064;8.228;2022-08-21T08:29:32;4.97;;;2.60;;
68931;SDS011;55970;50.064;8.228;2022-08-21T08:31:58;6.30;;;3.03;;
68931;SDS011;55970;50.064;8.228;2022-08-21T08:34:24;5.60;;;2.85;;
68931;SDS011;55970;50.064;8.228;2022-08-21T08:36:49;4.75;;;2.88;;
68931;SDS011;55970;50.064;8.228;2022-08-21T08:39:15;3.92;;;2.67;;
68931;SDS011;55970;50.064;8.228;2022-08-21T08:41:40;6.63;;;3.17;;
68931;SDS011;55970;50.064;8.228;2022-08-21T08:44:06;5.35;;;3.05;;
68931;SDS011;55970;50.064;8.228;2022-08-21T08:46:38;5.88;;;3.00;;
68931;SDS011;55970;50.064;8.228;2022-08-21T08:49:13;4.88;;;2.72;;
68931;SDS011;55970;50.064;8.228;2022-08-21T08:52:19;5.35;;;2.90;;
68931;SDS011;55970;50.064;8.228;2022-08-21T08:54:42;5.13;;;3.00;;
68931;SDS011;55970;50.064;8.228;2022-08-21T08:57:14;5.60;;;2.92;;
68931;SDS011;55970;50.064;8.228;2022-08-21T08:59:43;5.38;;;3.08;;
68931;SDS011;55970;50.064;8.228;2022-08-21T09:02:14;6.35;;;3.20;;
68931;SDS011;55970;50.064;8.228;2022-08-21T09:04:41;5.20;;;2.95;;
68931;SDS011;55970;50.064;8.228;2022-08-21T09:15:27;8.23;;;3.08;;
68931;SDS011;55970;50.064;8.228;2022-08-21T09:25:49;4.72;;;2.72;;
68931;SDS011;55970;50.064;8.228;2022-08-21T09:28:18;4.72;;;2.72;;
68931;SDS011;55970;50.064;8.228;2022-08-21T09:30:44;3.42;;;2.60;;
68931;SDS011;55970;50.064;8.228;2022-08-21T09:33:09;5.47;;;2.45;;
68931;SDS011;55970;50.064;8.228;2022-08-21T09:35:47;6.70;;;2.95;;
68931;SDS011;55970;50.064;8.228;2022-08-21T09:38:22;4.55;;;2.80;;
68931;SDS011;55970;50.064;8.228;2022-08-21T09:40:55;5.43;;;3.10;;
68931;SDS011;55970;50.064;8.228;2022-08-21T09:43:23;10.25;;;3.40;;
68931;SDS011;55970;50.064;8.228;2022-08-21T09:46:06;5.45;;;2.67;;
68931;SDS011;55970;50.064;8.228;2022-08-21T09:48:44;5.72;;;3.00;;
68931;SDS011;55970;50.064;8.228;2022-08-21T09:51:16;5.90;;;2.73;;
68931;SDS011;55970;50.064;8.228;2022-08-21T09:53:49;5.20;;;2.72;;
68931;SDS011;55970;50.064;8.228;2022-08-21T09:56:39;5.63;;;2.90;;
68931;SDS011;55970;50.064;8.228;2022-08-21T09:59:39;7.40;;;2.90;;
68931;SDS011;55970;50.064;8.228;2022-08-21T10:02:26;7.00;;;2.80;;
68931;SDS011;55970;50.064;8.228;2022-08-21T10:05:06;5.75;;;2.80;;
68931;SDS011;55970;50.064;8.228;2022-08-21T10:07:36;5.57;;;2.72;;
68931;SDS011;55970;50.064;8.228;2022-08-21T10:10:07;4.37;;;2.50;;
68931;SDS011;55970;50.064;8.228;2022-08-21T10:15:27;5.38;;;2.70;;
68931;SDS011;55970;50.064;8.228;2022-08-21T10:43:10;7.30;;;2.90;;
68931;SDS011;55970;50.064;8.228;2022-08-21T10:45:52;5.70;;;2.88;;
68931;SDS011;55970;50.064;8.228;2022-08-21T10:48:25;4.10;;;2.50;;
68931;SDS011;55970;50.064;8.228;2022-08-21T10:53:59;4.85;;;2.38;;
68931;SDS011;55970;50.064;8.228;2022-08-21T10:56:38;5.47;;;2.50;;
68931;SDS011;55970;50.064;8.228;2022-08-21T11:02:03;5.35;;;2.65;;
68931;SDS011;55970;50.064;8.228;2022-08-21T11:07:19;6.47;;;2.70;;
68931;SDS011;55970;50.064;8.228;2022-08-21T11:09:50;4.15;;;2.55;;
68931;SDS011;55970;50.064;8.228;2022-08-21T11:12:31;5.88;;;2.40;;
68931;SDS011;55970;50.064;8.228;2022-08-21T11:17:47;5.32;;;2.60;;
68931;SDS011;55970;50.064;8.228;2022-08-21T11:20:31;5.10;;;2.20;;
68931;SDS011;55970;50.064;8.228;2022-08-21T11:23:42;4.95;;;2.30;;
68931;SDS011;55970;50.064;8.228;2022-08-21T11:26:10;4.88;;;2.45;;
68931;SDS011;55970;50.064;8.228;2022-08-21T11:28:43;6.85;;;2.42;;
68931;SDS011;55970;50.064;8.228;2022-08-21T11:39:10;4.75;;;2.30;;
68931;SDS011;55970;50.064;8.228;2022-08-21T11:41:43;5.38;;;2.00;;
68931;SDS011;55970;50.064;8.228;2022-08-21T11:47:14;4.03;;;2.30;;
68931;SDS011;55970;50.064;8.228;2022-08-21T11:49:56;3.65;;;2.25;;
68931;SDS011;55970;50.064;8.228;2022-08-21T11:52:33;4.38;;;2.20;;
68931;SDS011;55970;50.064;8.228;2022-08-21T11:55:14;3.88;;;2.10;;
68931;SDS011;55970;50.064;8.228;2022-08-21T12:00:17;5.10;;;2.10;;
68931;SDS011;55970;50.064;8.228;2022-08-21T12:02:52;3.80;;;2.08;;
68931;SDS011;55970;50.064;8.228;2022-08-21T12:05:26;5.15;;;2.20;;
68931;SDS011;55970;50.064;8.228;2022-08-21T12:08:57;5.68;;;2.22;;
68931;SDS011;55970;50.064;8.228;2022-08-21T12:11:43;4.30;;;2.17;;
68931;SDS011;55970;50.064;8.228;2022-08-21T12:13:56;3.97;;;2.15;;
68931;SDS011;55970;50.064;8.228;2022-08-21T12:16:28;3.92;;;2.47;;
68931;SDS011;55970;50.064;8.228;2022-08-21T12:19:05;4.20;;;2.20;;
68931;SDS011;55970;50.064;8.228;2022-08-21T12:21:33;3.42;;;2.10;;
68931;SDS011;55970;50.064;8.228;2022-08-21T12:24:16;4.07;;;2.22;;
68931;SDS011;55970;50.064;8.228;2022-08-21T12:26:51;5.22;;;2.20;;
68931;SDS011;55970;50.064;8.228;2022-08-21T12:31:52;6.95;;;2.25;;
68931;SDS011;55970;50.064;8.228;2022-08-21T12:34:23;6.50;;;2.22;;
68931;SDS011;55970;50.064;8.228;2022-08-21T12:37:41;4.55;;;2.15;;
68931;SDS011;55970;50.064;8.228;2022-08-21T12:39:47;3.67;;;2.25;;
68931;SDS011;55970;50.064;8.228;2022-08-21T12:44:51;5.95;;;2.33;;
68931;SDS011;55970;50.064;8.228;2022-08-21T12:47:31;4.30;;;2.15;;
68931;SDS011;55970;50.064;8.228;2022-08-21T12:50:03;4.20;;;2.08;;
68931;SDS011;55970;50.064;8.228;2022-08-21T12:52:34;5.07;;;2.30;;
68931;SDS011;55970;50.064;8.228;2022-08-21T12:55:05;4.88;;;2.20;;
68931;SDS011;55970;50.064;8.228;2022-08-21T12:57:32;4.32;;;2.47;;
68931;SDS011;55970;50.064;8.228;2022-08-21T13:02:31;5.88;;;2.25;;
68931;SDS011;55970;50.064;8.228;2022-08-21T13:05:04;4.72;;;2.45;;
68931;SDS011;55970;50.064;8.228;2022-08-21T13:07:32;5.65;;;2.13;;
68931;SDS011;55970;50.064;8.228;2022-08-21T13:10:13;3.38;;;2.42;;
68931;SDS011;55970;50.064;8.228;2022-08-21T13:12:43;5.38;;;2.30;;
68931;SDS011;55970;50.064;8.228;2022-08-21T13:15:09;3.78;;;2.10;;
68931;SDS011;55970;50.064;8.228;2022-08-21T13:17:37;4.88;;;2.13;;
68931;SDS011;55970;50.064;8.228;2022-08-21T13:20:08;4.40;;;2.42;;
68931;SDS011;55970;50.064;8.228;2022-08-21T13:22:43;3.97;;;2.30;;
68931;SDS011;55970;50.064;8.228;2022-08-21T13:25:11;4.07;;;2.13;;
68931;SDS011;55970;50.064;8.228;2022-08-21T13:27:40;5.40;;;2.28;;
68931;SDS011;55970;50.064;8.228;2022-08-21T13:30:10;4.70;;;2.15;;
68931;SDS011;55970;50.064;8.228;2022-08-21T13:32:39;6.35;;;2.38;;
68931;SDS011;55970;50.064;8.228;2022-08-21T13:35:16;2.97;;;1.80;;
68931;SDS011;55970;50.064;8.228;2022-08-21T13:37:47;5.32;;;2.10;;
68931;SDS011;55970;50.064;8.228;2022-08-21T13:40:14;3.70;;;2.00;;
68931;SDS011;55970;50.064;8.228;2022-08-21T13:42:44;4.20;;;1.92;;
68931;SDS011;55970;50.064;8.228;2022-08-21T13:45:12;6.55;;;2.58;;
68931;SDS011;55970;50.064;8.228;2022-08-21T13:47:39;3.97;;;2.30;;
68931;SDS011;55970;50.064;8.228;2022-08-21T13:50:05;3.17;;;1.85;;
68931;SDS011;55970;50.064;8.228;2022-08-21T13:52:32;4.93;;;1.80;;
68931;SDS011;55970;50.064;8.228;2022-08-21T13:55:00;3.85;;;1.92;;
68931;SDS011;55970;50.064;8.228;2022-08-21T13:57:33;3.97;;;2.05;;
68931;SDS011;55970;50.064;8.228;2022-08-21T14:00:09;2.50;;;2.00;;
68931;SDS011;55970;50.064;8.228;2022-08-21T14:02:43;5.18;;;2.20;;
68931;SDS011;55970;50.064;8.228;2022-08-21T14:07:42;5.65;;;1.95;;
68931;SDS011;55970;50.064;8.228;2022-08-21T14:10:20;4.78;;;2.20;;
68931;SDS011;55970;50.064;8.228;2022-08-21T14:12:51;4.57;;;1.95;;
68931;SDS011;55970;50.064;8.228;2022-08-21T14:15:24;2.67;;;1.70;;
68931;SDS011;55970;50.064;8.228;2022-08-21T14:17:53;4.13;;;2.00;;
68931;SDS011;55970;50.064;8.228;2022-08-21T14:20:32;4.65;;;2.17;;
68931;SDS011;55970;50.064;8.228;2022-08-21T14:23:00;4.55;;;1.80;;
68931;SDS011;55970;50.064;8.228;2022-08-21T14:28:07;4.40;;;1.97;;
68931;SDS011;55970;50.064;8.228;2022-08-21T14:30:37;3.40;;;1.92;;
68931;SDS011;55970;50.064;8.228;2022-08-21T14:33:08;2.53;;;2.00;;
68931;SDS011;55970;50.064;8.228;2022-08-21T14:35:35;6.28;;;2.15;;
68931;SDS011;55970;50.064;8.228;2022-08-21T14:38:01;5.47;;;2.00;;
68931;SDS011;55970;50.064;8.228;2022-08-21T14:40:26;3.70;;;1.80;;
68931;SDS011;55970;50.064;8.228;2022-08-21T14:42:52;3.63;;;1.88;;
68931;SDS011;55970;50.064;8.228;2022-08-21T14:47:54;2.80;;;1.75;;
68931;SDS011;55970;50.064;8.228;2022-08-21T14:50:21;3.60;;;1.80;;
68931;SDS011;55970;50.064;8.228;2022-08-21T14:52:46;3.30;;;2.03;;
68931;SDS011;55970;50.064;8.228;2022-08-21T14:55:13;2.58;;;1.80;;
68931;SDS011;55970;50.064;8.228;2022-08-21T14:57:40;5.10;;;2.10;;
68931;SDS011;55970;50.064;8.228;2022-08-21T15:00:08;5.32;;;2.05;;
68931;SDS011;55970;50.064;8.228;2022-08-21T15:02:35;4.07;;;2.28;;
68931;SDS011;55970;50.064;8.228;2022-08-21T15:05:01;3.83;;;1.98;;
68931;SDS011;55970;50.064;8.228;2022-08-21T15:07:26;3.40;;;1.90;;
68931;SDS011;55970;50.064;8.228;2022-08-21T15:09:51;3.58;;;1.70;;
68931;SDS011;55970;50.064;8.228;2022-08-21T15:12:17;4.30;;;1.90;;
68931;SDS011;55970;50.064;8.228;2022-08-21T15:14:43;3.13;;;1.80;;
68931;SDS011;55970;50.064;8.228;2022-08-21T15:17:09;2.63;;;1.75;;
68931;SDS011;55970;50.064;8.228;2022-08-21T15:19:36;3.92;;;1.80;;
68931;SDS011;55970;50.064;8.228;2022-08-21T15:22:02;2.15;;;1.55;;
68931;SDS011;55970;50.064;8.228;2022-08-21T15:24:28;2.97;;;1.70;;
68931;SDS011;55970;50.064;8.228;2022-08-21T15:26:54;4.78;;;1.90;;
68931;SDS011;55970;50.064;8.228;2022-08-21T15:29:21;3.95;;;2.10;;
68931;SDS011;55970;50.064;8.228;2022-08-21T15:31:54;2.25;;;1.73;;
68931;SDS011;55970;50.064;8.228;2022-08-21T15:34:20;2.88;;;1.65;;
68931;SDS011;55970;50.064;8.228;2022-08-21T15:36:46;3.95;;;1.70;;
68931;SDS011;55970;50.064;8.228;2022-08-21T15:39:12;3.60;;;1.90;;
68931;SDS011;55970;50.064;8.228;2022-08-21T15:41:37;2.15;;;1.60;;
68931;SDS011;55970;50.064;8.228;2022-08-21T15:44:03;3.25;;;2.03;;
68931;SDS011;55970;50.064;8.228;2022-08-21T15:46:28;3.15;;;1.95;;
68931;SDS011;55970;50.064;8.228;2022-08-21T15:48:54;4.05;;;1.98;;
68931;SDS011;55970;50.064;8.228;2022-08-21T15:51:19;3.93;;;2.00;;
68931;SDS011;55970;50.064;8.228;2022-08-21T15:53:45;4.72;;;2.05;;
68931;SDS011;55970;50.064;8.228;2022-08-21T15:56:17;3.38;;;2.03;;
68931;SDS011;55970;50.064;8.228;2022-08-21T15:58:47;5.20;;;2.38;;
68931;SDS011;55970;50.064;8.228;2022-08-21T16:03:42;4.07;;;1.83;;
68931;SDS011;55970;50.064;8.228;2022-08-21T16:06:13;2.55;;;1.90;;
68931;SDS011;55970;50.064;8.228;2022-08-21T16:08:38;3.88;;;1.90;;
68931;SDS011;55970;50.064;8.228;2022-08-21T16:11:04;3.13;;;2.00;;
68931;SDS011;55970;50.064;8.228;2022-08-21T16:13:39;2.83;;;1.55;;
68931;SDS011;55970;50.064;8.228;2022-08-21T16:16:07;3.42;;;1.90;;
68931;SDS011;55970;50.064;8.228;2022-08-21T16:18:35;3.67;;;1.88;;
68931;SDS011;55970;50.064;8.228;2022-08-21T16:21:01;2.80;;;1.80;;
68931;SDS011;55970;50.064;8.228;2022-08-21T16:23:27;4.03;;;2.03;;
68931;SDS011;55970;50.064;8.228;2022-08-21T16:25:52;4.07;;;1.77;;
68931;SDS011;55970;50.064;8.228;2022-08-21T16:28:18;3.00;;;1.58;;